createdAt,value
2023-03-16T00:01:16.650Z,9.50
2023-03-16T00:37:09.548Z,9.10
2023-03-16T00:39:38.953Z,9.10
2023-03-16T00:42:10.444Z,9.10
2023-03-16T00:44:40.028Z,9.00
2023-03-16T00:47:15.275Z,9.00
2023-03-16T00:49:45.616Z,8.90
2023-03-16T00:52:15.195Z,9.00
2023-03-16T00:54:47.036Z,9.00
2023-03-16T00:57:18.943Z,8.90
2023-03-16T00:59:50.481Z,8.90
2023-03-16T01:02:24.497Z,8.90
2023-03-16T01:04:55.101Z,8.80
2023-03-16T01:07:27.739Z,8.90
2023-03-16T01:09:57.593Z,8.70
2023-03-16T01:12:28.193Z,8.60
2023-03-16T01:14:57.970Z,8.70
2023-03-16T01:17:29.186Z,8.70
2023-03-16T01:19:59.637Z,8.70
2023-03-16T01:22:29.144Z,8.70
2023-03-16T01:24:58.599Z,8.70
2023-03-16T01:27:28.013Z,8.70
2023-03-16T01:29:57.438Z,8.70
2023-03-16T01:32:27.206Z,8.60
2023-03-16T01:34:56.685Z,8.60
2023-03-16T01:37:26.238Z,8.60
2023-03-16T01:40:05.375Z,8.60
2023-03-16T01:42:43.736Z,8.50
2023-03-16T01:45:50.506Z,8.50
2023-03-16T01:48:24.926Z,8.40
2023-03-16T01:50:56.975Z,8.50
2023-03-16T01:53:26.864Z,8.50
2023-03-16T01:55:56.469Z,8.50
2023-03-16T01:58:27.357Z,8.40
2023-03-16T02:00:58.697Z,8.20
2023-03-16T02:03:30.780Z,8.30
2023-03-16T02:06:14.616Z,8.20
2023-03-16T02:08:48.965Z,8.10
2023-03-16T02:11:19.360Z,8.20
2023-03-16T02:13:53.723Z,8.20
2023-03-16T02:16:23.467Z,8.40
2023-03-16T02:18:54.097Z,8.30
2023-03-16T02:21:48.927Z,8.30
2023-03-16T02:24:18.616Z,8.40
2023-03-16T02:26:54.309Z,8.30
2023-03-16T02:29:45.193Z,8.30
2023-03-16T02:32:16.900Z,8.10
2023-03-16T02:34:46.449Z,8.00
2023-03-16T02:37:16.700Z,8.10
2023-03-16T02:39:46.118Z,8.00
2023-03-16T02:42:23.462Z,8.00
2023-03-16T02:44:56.528Z,7.90
2023-03-16T02:47:33.827Z,7.80
2023-03-16T02:50:05.929Z,7.80
2023-03-16T02:52:38.427Z,7.80
2023-03-16T02:55:09.144Z,7.90
2023-03-16T02:57:38.691Z,7.90
2023-03-16T03:00:15.560Z,7.90
2023-03-16T03:02:49.259Z,8.00
2023-03-16T03:05:19.375Z,8.00
2023-03-16T03:07:49.724Z,8.00
2023-03-16T03:10:20.373Z,7.90
2023-03-16T03:12:52.134Z,7.90
2023-03-16T03:15:23.539Z,7.90
2023-03-16T03:17:58.194Z,7.80
2023-03-16T03:20:29.703Z,7.80
2023-03-16T03:23:00.357Z,7.80
2023-03-16T03:25:33.287Z,7.80
2023-03-16T03:28:04.869Z,7.80
2023-03-16T03:30:34.406Z,7.70
2023-03-16T03:33:07.087Z,7.80
2023-03-16T03:35:37.857Z,7.80
2023-03-16T03:38:08.174Z,7.80
2023-03-16T03:40:38.029Z,7.80
2023-03-16T03:43:07.646Z,7.90
2023-03-16T03:45:38.828Z,8.00
2023-03-16T03:48:09.375Z,7.90
2023-03-16T03:50:40.564Z,7.80
2023-03-16T03:53:11.731Z,8.00
2023-03-16T03:55:42.912Z,8.00
2023-03-16T03:58:13.226Z,8.10
2023-03-16T04:00:42.683Z,8.10
2023-03-16T04:03:12.563Z,7.90
2023-03-16T04:05:44.165Z,7.80
2023-03-16T04:08:15.130Z,7.90
2023-03-16T04:10:44.775Z,8.00
2023-03-16T04:13:14.652Z,8.10
2023-03-16T04:15:46.082Z,8.10
2023-03-16T04:18:20.005Z,8.10
2023-03-16T04:20:49.784Z,8.50
2023-03-16T04:23:24.670Z,8.50
2023-03-16T04:25:55.329Z,8.50
2023-03-16T04:28:26.575Z,8.60
2023-03-16T04:30:57.038Z,8.50
2023-03-16T04:33:28.148Z,8.50
2023-03-16T04:35:59.999Z,8.60
2023-03-16T04:38:33.869Z,8.60
2023-03-16T04:41:06.504Z,8.60
2023-03-16T04:43:38.018Z,8.60
2023-03-16T04:46:15.156Z,8.60
2023-03-16T04:48:44.912Z,8.70
2023-03-16T04:51:16.408Z,8.60
2023-03-16T04:53:46.749Z,8.60
2023-03-16T04:56:21.186Z,8.50
2023-03-16T04:58:54.228Z,8.60
2023-03-16T05:01:25.947Z,8.50
2023-03-16T05:03:59.558Z,8.50
2023-03-16T05:06:32.027Z,8.40
2023-03-16T05:09:04.699Z,8.50
2023-03-16T05:11:37.210Z,8.40
2023-03-16T05:14:08.400Z,8.50
2023-03-16T05:16:39.687Z,8.40
2023-03-16T05:19:09.168Z,8.40
2023-03-16T05:21:39.686Z,8.50
2023-03-16T05:24:13.271Z,8.30
2023-03-16T05:26:43.899Z,8.40
2023-03-16T05:29:14.945Z,8.50
2023-03-16T05:31:47.961Z,8.60
2023-03-16T05:34:18.379Z,8.50
2023-03-16T05:36:48.272Z,8.60
2023-03-16T05:39:18.398Z,8.80
2023-03-16T05:41:49.759Z,8.70
2023-03-16T05:44:21.899Z,8.90
2023-03-16T05:46:58.889Z,8.80
2023-03-16T05:49:29.599Z,8.80
2023-03-16T05:51:59.687Z,8.70
2023-03-16T05:54:30.909Z,8.80
2023-03-16T05:57:00.436Z,8.70
2023-03-16T05:59:31.614Z,8.80
2023-03-16T06:02:01.116Z,8.80
2023-03-16T06:04:32.505Z,8.90
2023-03-16T06:07:02.240Z,8.90
2023-03-16T06:09:34.934Z,8.90
2023-03-16T06:12:05.329Z,9.00
2023-03-16T06:14:36.241Z,9.00
2023-03-16T06:17:05.957Z,9.00
2023-03-16T06:19:36.212Z,9.10
2023-03-16T06:22:05.878Z,9.00
2023-03-16T06:24:35.501Z,9.10
2023-03-16T06:27:06.451Z,9.10
2023-03-16T06:29:37.768Z,9.20
2023-03-16T06:32:07.554Z,9.30
2023-03-16T06:34:38.270Z,9.40
2023-03-16T06:37:09.089Z,9.40
2023-03-16T06:39:39.218Z,9.40
2023-03-16T06:42:08.857Z,9.70
2023-03-16T06:44:39.282Z,9.70
2023-03-16T06:47:10.562Z,9.80
2023-03-16T06:49:40.047Z,9.90
2023-03-16T06:52:13.581Z,10.00
2023-03-16T06:54:43.004Z,10.10
2023-03-16T06:57:14.320Z,10.20
2023-03-16T06:59:44.902Z,10.20
2023-03-16T07:02:15.551Z,10.30
2023-03-16T07:04:45.966Z,10.50
2023-03-16T07:07:15.476Z,10.40
2023-03-16T07:09:45.261Z,10.50
2023-03-16T07:12:15.314Z,10.60
2023-03-16T07:14:50.729Z,10.80
2023-03-16T07:17:19.464Z,10.90
2023-03-16T07:19:48.969Z,11.00
2023-03-16T07:22:18.541Z,10.90
2023-03-16T07:24:50.893Z,11.20
2023-03-16T07:27:20.431Z,11.30
2023-03-16T07:29:53.949Z,11.30
2023-03-16T07:32:23.676Z,11.30
2023-03-16T07:34:53.985Z,11.50
2023-03-16T07:37:25.689Z,11.50
2023-03-16T07:39:56.432Z,11.60
2023-03-16T07:42:26.174Z,11.70
2023-03-16T07:44:57.445Z,11.50
2023-03-16T07:47:27.027Z,12.00
2023-03-16T07:49:58.222Z,11.90
2023-03-16T07:52:28.412Z,11.80
2023-03-16T07:54:57.900Z,12.00
2023-03-16T07:57:27.407Z,12.10
2023-03-16T07:59:59.023Z,12.00
2023-03-16T08:02:28.564Z,12.00
2023-03-16T08:04:58.106Z,12.10
2023-03-16T08:07:44.925Z,12.20
2023-03-16T08:10:16.192Z,12.50
2023-03-16T08:12:47.404Z,12.20
2023-03-16T08:15:18.432Z,12.40
2023-03-16T08:17:48.291Z,12.70
2023-03-16T08:20:19.565Z,12.70
2023-03-16T08:22:50.618Z,12.90
2023-03-16T08:25:23.886Z,12.80
2023-03-16T08:27:58.614Z,13.00
2023-03-16T08:30:28.441Z,12.80
2023-03-16T08:33:02.047Z,12.90
2023-03-16T08:35:31.985Z,13.10
2023-03-16T08:38:01.595Z,13.10
2023-03-16T08:40:31.418Z,13.00
2023-03-16T08:43:03.837Z,13.10
2023-03-16T08:45:35.888Z,13.20
2023-03-16T08:48:05.570Z,13.70
2023-03-16T08:50:35.040Z,13.20
2023-03-16T08:53:06.611Z,13.40
2023-03-16T08:55:37.872Z,13.90
2023-03-16T08:58:08.108Z,14.20
2023-03-16T09:00:39.328Z,13.60
2023-03-16T09:03:11.996Z,13.40
2023-03-16T09:05:43.170Z,13.70
2023-03-16T09:08:13.695Z,14.10
2023-03-16T09:10:43.365Z,13.70
2023-03-16T09:13:14.278Z,13.70
2023-03-16T09:15:44.673Z,14.40
2023-03-16T09:18:14.094Z,14.30
2023-03-16T09:20:44.461Z,14.70
2023-03-16T09:23:14.250Z,14.40
2023-03-16T09:25:43.677Z,14.20
2023-03-16T09:28:13.210Z,14.20
2023-03-16T09:30:42.691Z,14.10
2023-03-16T09:33:12.252Z,14.50
2023-03-16T09:35:45.499Z,14.30
2023-03-16T09:38:13.875Z,14.50
2023-03-16T09:40:46.672Z,14.30
2023-03-16T09:43:20.099Z,14.50
2023-03-16T09:46:12.713Z,14.70
2023-03-16T09:48:42.590Z,14.90
2023-03-16T09:51:18.434Z,15.10
2023-03-16T09:53:51.767Z,14.80
2023-03-16T09:56:30.292Z,15.50
2023-03-16T09:59:02.406Z,15.00
2023-03-16T10:01:54.610Z,14.90
2023-03-16T10:04:46.939Z,14.80
2023-03-16T10:07:29.269Z,15.00
2023-03-16T10:10:03.214Z,15.60
2023-03-16T10:12:35.892Z,15.30
2023-03-16T10:15:12.700Z,15.50
2023-03-16T10:17:54.118Z,15.70
2023-03-16T10:20:27.918Z,16.00
2023-03-16T10:22:59.110Z,15.50
2023-03-16T10:25:44.602Z,15.30
2023-03-16T10:28:23.095Z,16.10
2023-03-16T10:30:55.643Z,15.70
2023-03-16T10:33:30.132Z,16.00
2023-03-16T10:36:04.745Z,16.30
2023-03-16T10:38:56.108Z,16.20
2023-03-16T10:41:34.964Z,16.30
2023-03-16T10:44:16.877Z,15.90
2023-03-16T10:46:49.931Z,16.10
2023-03-16T10:49:27.919Z,16.40
2023-03-16T10:52:01.178Z,16.50
2023-03-16T10:54:33.679Z,16.40
2023-03-16T10:57:26.064Z,16.40
2023-03-16T10:59:58.566Z,15.80
2023-03-16T11:02:36.266Z,16.40
2023-03-16T11:05:32.667Z,16.20
2023-03-16T11:08:11.669Z,16.10
2023-03-16T11:10:55.454Z,16.30
2023-03-16T11:13:21.413Z,16.40
2023-03-16T11:16:01.281Z,16.70
2023-03-16T11:18:33.877Z,16.40
2023-03-16T11:21:06.696Z,16.10
2023-03-16T11:23:39.958Z,16.20
2023-03-16T11:26:12.476Z,16.30
2023-03-16T11:28:44.981Z,16.80
2023-03-16T11:31:54.257Z,16.80
2023-03-16T11:34:32.558Z,16.60
2023-03-16T11:37:08.786Z,17.10
2023-03-16T11:39:46.863Z,16.70
2023-03-16T11:42:31.114Z,16.70
2023-03-16T11:45:22.088Z,16.90
2023-03-16T11:48:00.351Z,16.80
2023-03-16T11:50:33.666Z,16.60
2023-03-16T11:53:05.318Z,17.20
2023-03-16T11:55:52.863Z,17.00
2023-03-16T11:58:41.285Z,16.80
2023-03-16T12:01:33.311Z,16.70
2023-03-16T12:04:10.454Z,16.60
2023-03-16T12:06:56.683Z,17.30
2023-03-16T12:09:48.368Z,16.50
2023-03-16T12:12:27.194Z,16.50
2023-03-16T12:15:28.481Z,16.60
2023-03-16T12:18:01.367Z,16.70
2023-03-16T12:20:36.568Z,17.50
2023-03-16T12:23:15.039Z,17.50
2023-03-16T12:25:47.604Z,17.80
2023-03-16T12:28:24.136Z,17.70
2023-03-16T12:31:13.515Z,17.60
2023-03-16T12:33:53.404Z,17.80
2023-03-16T12:36:49.228Z,17.10
2023-03-16T12:39:26.212Z,17.60
2023-03-16T12:42:21.227Z,17.50
2023-03-16T12:45:00.549Z,17.60
2023-03-16T12:47:58.603Z,17.70
2023-03-16T12:50:28.257Z,16.90
2023-03-16T12:52:57.758Z,17.10
2023-03-16T12:55:39.860Z,17.60
2023-03-16T12:58:11.994Z,17.80
2023-03-16T13:00:43.285Z,18.20
2023-03-16T13:03:23.528Z,17.40
2023-03-16T13:06:03.198Z,17.30
2023-03-16T13:08:47.566Z,17.30
2023-03-16T13:11:18.636Z,17.70
2023-03-16T13:13:54.177Z,17.80
2023-03-16T13:16:30.113Z,16.90
2023-03-16T13:19:01.014Z,17.20
2023-03-16T13:21:42.838Z,17.50
2023-03-16T13:24:30.710Z,17.50
2023-03-16T13:27:04.092Z,16.80
2023-03-16T13:29:34.366Z,17.00
2023-03-16T13:32:08.046Z,16.70
2023-03-16T13:34:40.605Z,16.80
2023-03-16T13:37:15.313Z,16.90
2023-03-16T13:39:56.299Z,17.10
2023-03-16T13:42:28.524Z,17.20
2023-03-16T13:45:00.471Z,16.70
2023-03-16T13:47:30.398Z,16.90
2023-03-16T13:50:01.184Z,17.20
2023-03-16T13:52:34.405Z,16.80
2023-03-16T13:55:06.695Z,17.10
2023-03-16T13:57:40.355Z,16.80
2023-03-16T14:00:24.111Z,16.80
2023-03-16T14:02:57.402Z,16.90
2023-03-16T14:05:30.331Z,16.70
2023-03-16T14:08:01.736Z,16.50
2023-03-16T14:10:35.403Z,16.30
2023-03-16T14:13:29.713Z,16.20
2023-03-16T14:16:13.989Z,16.30
2023-03-16T14:18:46.831Z,16.50
2023-03-16T14:21:22.157Z,16.00
2023-03-16T14:24:04.850Z,16.10
2023-03-16T14:26:43.216Z,16.10
2023-03-16T14:29:33.761Z,16.30
2023-03-16T14:32:03.865Z,16.30
2023-03-16T14:34:36.494Z,16.20
2023-03-16T14:37:14.836Z,16.40
2023-03-16T14:39:44.736Z,16.80
2023-03-16T14:42:23.514Z,16.70
2023-03-16T14:44:54.445Z,16.40
2023-03-16T14:47:28.178Z,16.40
2023-03-16T14:50:01.741Z,16.30
2023-03-16T14:52:34.036Z,16.30
2023-03-16T14:55:07.391Z,16.10
2023-03-16T14:57:36.809Z,16.30
2023-03-16T15:00:14.590Z,16.40
2023-03-16T15:02:47.711Z,16.50
2023-03-16T15:05:26.991Z,16.50
2023-03-16T15:07:58.377Z,16.20
2023-03-16T15:10:32.343Z,16.10
2023-03-16T15:13:06.144Z,16.10
2023-03-16T15:15:36.676Z,15.90
2023-03-16T15:18:06.244Z,15.90
2023-03-16T15:20:39.292Z,16.00
2023-03-16T15:23:17.089Z,16.20
2023-03-16T15:25:49.375Z,16.10
2023-03-16T15:28:21.050Z,15.90
2023-03-16T15:30:56.702Z,15.70
2023-03-16T15:33:29.136Z,15.80
2023-03-16T15:36:02.232Z,15.60
2023-03-16T15:38:36.733Z,15.50
2023-03-16T15:41:12.199Z,15.60
2023-03-16T15:43:41.698Z,15.70
2023-03-16T15:46:13.030Z,15.80
2023-03-16T15:48:42.670Z,16.00
2023-03-16T15:51:27.408Z,15.80
2023-03-16T15:54:08.562Z,15.80
2023-03-16T15:56:53.297Z,15.90
2023-03-16T15:59:18.234Z,15.80
2023-03-16T16:01:50.826Z,15.80
2023-03-16T16:04:24.418Z,15.70
2023-03-16T16:06:56.542Z,15.50
2023-03-16T16:09:26.035Z,15.50
2023-03-16T16:11:55.734Z,15.40
2023-03-16T16:14:28.753Z,15.40
2023-03-16T16:16:57.429Z,15.50
2023-03-16T16:19:27.189Z,15.40
2023-03-16T16:21:57.079Z,15.60
2023-03-16T16:24:26.511Z,15.60
2023-03-16T16:26:57.615Z,15.50
2023-03-16T16:29:31.905Z,15.50
2023-03-16T16:32:02.745Z,15.30
2023-03-16T16:34:32.144Z,15.30
2023-03-16T16:37:01.645Z,15.20
2023-03-16T16:39:31.121Z,15.20
2023-03-16T16:42:00.638Z,15.20
2023-03-16T16:44:34.819Z,15.10
2023-03-16T16:47:03.888Z,15.00
2023-03-16T16:49:35.240Z,14.90
2023-03-16T16:52:04.995Z,14.80
2023-03-16T16:54:35.583Z,14.70
2023-03-16T16:57:07.750Z,14.60
2023-03-16T16:59:39.032Z,14.60
2023-03-16T17:02:38.788Z,14.50
2023-03-16T17:05:08.351Z,14.40
2023-03-16T17:07:38.310Z,14.40
2023-03-16T17:12:23.740Z,14.30
2023-03-16T17:14:53.394Z,14.20
2023-03-16T17:17:23.627Z,14.20
2023-03-16T17:19:53.060Z,14.10
2023-03-16T17:22:29.460Z,14.00
2023-03-16T17:24:59.510Z,14.00
2023-03-16T17:27:33.908Z,14.00
2023-03-16T17:30:04.416Z,13.90
2023-03-16T17:32:39.796Z,13.80
2023-03-16T17:35:16.847Z,13.80
2023-03-16T17:37:48.200Z,13.70
2023-03-16T17:40:20.149Z,13.70
2023-03-16T17:42:51.572Z,13.60
2023-03-16T17:45:23.692Z,13.60
2023-03-16T17:47:53.999Z,13.60
2023-03-16T17:50:29.746Z,13.60
2023-03-16T17:53:01.122Z,13.50
2023-03-16T17:55:30.702Z,13.40
2023-03-16T17:58:01.435Z,13.30
2023-03-16T18:00:36.672Z,13.30
2023-03-16T18:03:17.973Z,13.20
2023-03-16T18:05:47.906Z,13.20
2023-03-16T18:08:21.382Z,13.10
2023-03-16T18:10:56.477Z,13.10
2023-03-16T18:13:29.209Z,13.10
2023-03-16T18:16:00.868Z,13.00
2023-03-16T18:18:35.788Z,13.00
2023-03-16T18:21:07.631Z,12.90
2023-03-16T18:23:38.337Z,12.90
2023-03-16T18:26:09.421Z,12.90
2023-03-16T18:28:39.406Z,12.90
2023-03-16T18:31:21.535Z,12.80
2023-03-16T18:33:55.279Z,12.80
2023-03-16T18:36:26.113Z,12.80
2023-03-16T18:38:57.537Z,12.70
2023-03-16T18:41:30.528Z,12.70
2023-03-16T18:44:03.111Z,12.60
2023-03-16T18:46:35.932Z,12.60
2023-03-16T18:49:20.798Z,12.60
2023-03-16T18:51:53.552Z,12.60
2023-03-16T18:54:25.979Z,12.60
2023-03-16T18:56:56.615Z,12.50
2023-03-16T18:59:27.484Z,12.50
2023-03-16T19:01:58.098Z,12.50
2023-03-16T19:04:33.185Z,12.40
2023-03-16T19:07:05.306Z,12.40
2023-03-16T19:09:36.860Z,12.40
2023-03-16T19:12:07.425Z,12.40
2023-03-16T19:14:37.268Z,12.40
2023-03-16T19:17:06.922Z,12.30
2023-03-16T19:19:36.840Z,12.30
2023-03-16T19:22:15.299Z,12.30
2023-03-16T19:24:50.668Z,12.30
2023-03-16T19:27:29.504Z,12.30
2023-03-16T19:29:59.274Z,12.20
2023-03-16T19:32:28.702Z,12.20
2023-03-16T19:34:58.445Z,12.20
2023-03-16T19:37:29.529Z,12.10
2023-03-16T19:40:00.598Z,12.20
2023-03-16T19:42:37.265Z,12.10
2023-03-16T19:45:08.061Z,12.10
2023-03-16T19:47:38.359Z,12.10
2023-03-16T19:50:20.794Z,12.00
2023-03-16T19:52:50.573Z,12.10
2023-03-16T19:55:23.057Z,12.10
2023-03-16T19:57:55.721Z,12.00
2023-03-16T20:00:28.260Z,12.00
2023-03-16T20:02:58.900Z,11.90
2023-03-16T20:05:33.814Z,11.90
2023-03-16T20:08:06.863Z,11.90
2023-03-16T20:10:35.523Z,11.90
2023-03-16T20:13:06.615Z,11.90
2023-03-16T20:15:37.548Z,11.80
2023-03-16T20:18:11.359Z,11.80
2023-03-16T20:20:41.641Z,11.80
2023-03-16T20:23:25.800Z,11.80
2023-03-16T20:26:03.251Z,11.80
2023-03-16T20:28:38.282Z,11.80
2023-03-16T20:31:10.030Z,11.80
2023-03-16T20:33:39.593Z,11.80
2023-03-16T20:36:13.592Z,11.90
2023-03-16T20:38:43.845Z,11.80
2023-03-16T20:41:16.579Z,11.80
2023-03-16T20:43:46.716Z,11.70
2023-03-16T20:46:19.639Z,11.70
2023-03-16T20:48:48.338Z,11.70
2023-03-16T20:51:18.560Z,11.80
2023-03-16T20:53:50.186Z,11.70
2023-03-16T20:56:22.673Z,11.70
2023-03-16T20:58:55.150Z,11.80
2023-03-16T21:01:25.284Z,11.70
2023-03-16T21:03:56.097Z,11.80
2023-03-16T21:06:30.595Z,11.80
2023-03-16T21:09:03.426Z,11.70
2023-03-16T21:11:39.273Z,11.70
2023-03-16T21:14:17.830Z,11.70
2023-03-16T21:16:47.850Z,11.70
2023-03-16T21:19:21.966Z,11.70
2023-03-16T21:21:52.487Z,11.70
2023-03-16T21:24:21.992Z,11.70
2023-03-16T21:26:51.493Z,11.70
2023-03-16T21:29:22.460Z,11.60
2023-03-16T21:31:52.676Z,11.70
2023-03-16T21:34:31.320Z,11.70
2023-03-16T21:37:00.906Z,11.70
2023-03-16T21:39:30.464Z,11.70
2023-03-16T21:42:00.617Z,11.70
2023-03-16T21:44:30.109Z,11.70
2023-03-16T21:46:59.824Z,11.70
2023-03-16T21:49:29.614Z,11.60
2023-03-16T21:52:00.278Z,11.70
2023-03-16T21:54:29.766Z,11.70
2023-03-16T21:56:59.873Z,11.70
2023-03-16T21:59:29.305Z,11.70
2023-03-16T22:02:02.302Z,11.70
2023-03-16T22:04:30.337Z,11.70
2023-03-16T22:06:59.765Z,11.70
2023-03-16T22:09:32.568Z,11.70
2023-03-16T22:12:01.998Z,11.60
2023-03-16T22:14:31.440Z,11.70
2023-03-16T22:17:02.074Z,11.60
2023-03-16T22:19:31.994Z,11.60
2023-03-16T22:22:01.604Z,11.70
2023-03-16T22:24:35.011Z,11.70
2023-03-16T22:27:04.700Z,11.70
2023-03-16T22:29:34.237Z,11.70
2023-03-16T22:32:09.760Z,11.70
2023-03-16T22:34:45.196Z,11.80
2023-03-16T22:37:17.681Z,11.70
2023-03-16T22:39:48.299Z,11.70
2023-03-16T22:42:30.414Z,11.70
2023-03-16T22:45:01.417Z,11.70
2023-03-16T22:47:33.156Z,11.70
2023-03-16T22:50:04.941Z,11.70
2023-03-16T22:52:37.100Z,11.70
2023-03-16T22:55:09.185Z,11.80
2023-03-16T22:57:38.699Z,11.80
2023-03-16T23:00:12.077Z,11.70
2023-03-16T23:02:42.719Z,11.80
2023-03-16T23:05:16.521Z,11.70
2023-03-16T23:07:48.682Z,11.80
2023-03-16T23:10:21.466Z,11.80
2023-03-16T23:12:51.185Z,11.80
2023-03-16T23:15:27.105Z,11.80
2023-03-16T23:17:57.851Z,11.80
2023-03-16T23:20:33.548Z,11.80
2023-03-16T23:23:04.837Z,11.80
2023-03-16T23:25:36.740Z,11.80
2023-03-16T23:28:07.784Z,11.80
2023-03-16T23:30:38.234Z,11.80
2023-03-16T23:33:07.734Z,11.80
2023-03-16T23:35:37.310Z,11.90
2023-03-16T23:38:07.031Z,11.80
2023-03-16T23:40:39.906Z,11.80
2023-03-16T23:43:10.679Z,11.80
2023-03-16T23:45:42.487Z,11.90
2023-03-16T23:48:20.600Z,11.90
2023-03-16T23:50:53.065Z,11.90
2023-03-16T23:53:25.453Z,12.00
2023-03-16T23:55:55.012Z,12.00
2023-03-16T23:58:24.595Z,12.00
